Time;durP1;ratioP1;P1;durP2;ratioP2;P2;SDS_P1;SDS_P2;PMS_P1;PMS_P2;Temp;Humidity;BMP_temperature;BMP_pressure;BME280_temperature;BME280_humidity;BME280_pressure;Samples;Min_cycle;Max_cycle;Signal;HPM_P1;HPM_P2
2021/05/12 00:01:30;;;;;;;4.57;3.70;;;;;;;10.95;100.00;95733.25;5076407;28;21052;-70
2021/05/12 00:03:56;;;;;;;5.53;3.80;;;;;;;11.01;100.00;95732.50;5076425;28;20187;-69
2021/05/12 00:06:22;;;;;;;4.70;3.70;;;;;;;10.95;100.00;95728.00;5076452;28;20204;-70
2021/05/12 00:08:48;;;;;;;3.90;3.17;;;;;;;10.90;100.00;95726.94;5077233;28;21044;-70
2021/05/12 00:11:14;;;;;;;5.00;3.37;;;;;;;10.93;100.00;95724.72;5076424;28;20224;-70
2021/05/12 00:13:40;;;;;;;4.60;3.30;;;;;;;10.95;100.00;95728.78;5077228;28;20210;-70
2021/05/12 00:16:06;;;;;;;4.03;3.23;;;;;;;10.98;100.00;95730.22;5075710;28;20203;-70
2021/05/12 00:18:37;;;;;;;4.97;2.83;;;;;;;11.02;100.00;95726.22;5076663;28;20195;-70
2021/05/12 00:21:05;;;;;;;3.43;2.70;;;;;;;11.05;100.00;95725.84;5076531;28;20219;-70
2021/05/12 00:23:40;;;;;;;4.30;2.97;;;;;;;10.98;100.00;95731.06;5077013;28;20204;-70
2021/05/12 00:26:06;;;;;;;4.20;3.30;;;;;;;10.92;100.00;95736.28;5075633;28;20211;-70
2021/05/12 00:28:32;;;;;;;4.73;3.70;;;;;;;10.93;100.00;95734.47;5076731;28;20200;-70
2021/05/12 00:30:58;;;;;;;3.80;3.40;;;;;;;10.92;100.00;95740.72;5076218;28;20292;-70
2021/05/12 00:33:24;;;;;;;4.73;3.63;;;;;;;10.89;100.00;95741.13;5080249;28;20211;-70
2021/05/12 00:35:51;;;;;;;5.77;3.73;;;;;;;10.93;100.00;95737.09;5079425;28;20318;-70
2021/05/12 00:38:17;;;;;;;4.40;3.63;;;;;;;10.94;100.00;95732.44;5081348;28;20200;-70
2021/05/12 00:40:43;;;;;;;4.50;3.57;;;;;;;10.93;100.00;95723.91;5079630;28;20275;-70
2021/05/12 00:43:09;;;;;;;5.17;4.07;;;;;;;10.92;100.00;95736.28;5079907;28;20200;-70
2021/05/12 00:45:35;;;;;;;4.80;3.73;;;;;;;10.86;100.00;95733.56;5079832;28;20200;-70
2021/05/12 00:48:01;;;;;;;4.00;3.60;;;;;;;10.90;100.00;95732.22;5079438;28;20212;-70
2021/05/12 00:50:29;;;;;;;5.30;4.13;;;;;;;10.83;100.00;95729.50;5080351;28;20220;-70
2021/05/12 00:52:56;;;;;;;4.37;3.40;;;;;;;10.84;100.00;95725.06;5080035;28;20257;-70
2021/05/12 00:55:22;;;;;;;6.43;3.70;;;;;;;10.78;100.00;95721.38;5079606;28;20754;-70
2021/05/12 00:57:49;;;;;;;4.43;3.67;;;;;;;10.83;100.00;95723.44;5079853;28;20208;-70
2021/05/12 01:00:18;;;;;;;4.37;3.77;;;;;;;10.85;100.00;95729.34;5080126;28;20222;-70
2021/05/12 01:02:44;;;;;;;5.60;4.20;;;;;;;10.78;100.00;95718.75;5079860;28;20204;-70
2021/05/12 01:05:22;;;;;;;4.80;4.13;;;;;;;10.84;100.00;95723.22;5079217;28;20207;-70
2021/05/12 01:07:48;;;;;;;5.37;4.10;;;;;;;10.89;100.00;95723.47;5079428;28;20199;-70
2021/05/12 01:10:15;;;;;;;5.47;4.07;;;;;;;10.84;100.00;95717.16;5079607;28;20260;-69
2021/05/12 01:12:41;;;;;;;6.93;4.33;;;;;;;10.86;100.00;95721.22;5079232;28;20204;-70
2021/05/12 01:15:08;;;;;;;6.13;4.53;;;;;;;10.86;100.00;95717.75;5078820;28;20259;-70
2021/05/12 01:17:33;;;;;;;6.80;4.40;;;;;;;10.84;100.00;95711.88;5079677;28;20211;-70
2021/05/12 01:19:59;;;;;;;5.10;3.97;;;;;;;10.83;100.00;95718.97;5079072;28;20603;-70
2021/05/12 01:22:28;;;;;;;5.87;4.17;;;;;;;10.88;100.00;95719.19;5079224;28;20246;-70
2021/05/12 01:24:54;;;;;;;5.30;4.10;;;;;;;10.97;100.00;95713.63;5079372;28;20208;-70
2021/05/12 01:27:20;;;;;;;7.10;4.37;;;;;;;10.86;100.00;95707.22;5078676;28;20200;-70
2021/05/12 01:29:46;;;;;;;6.47;4.07;;;;;;;10.92;100.00;95717.00;5078978;28;20219;-70
2021/05/12 01:32:12;;;;;;;6.00;4.60;;;;;;;10.82;100.00;95713.88;5079598;28;20693;-69
2021/05/12 01:34:38;;;;;;;5.70;4.57;;;;;;;10.85;100.00;95716.16;5078395;28;20215;-70
2021/05/12 01:37:04;;;;;;;5.73;4.10;;;;;;;10.82;100.00;95712.09;5078803;28;20206;-69
2021/05/12 01:39:31;;;;;;;6.07;4.10;;;;;;;10.81;100.00;95710.44;5079597;28;20226;-70
2021/05/12 01:41:57;;;;;;;6.17;3.90;;;;;;;10.86;100.00;95709.84;5078831;28;20211;-70
2021/05/12 01:44:23;;;;;;;5.33;3.87;;;;;;;10.86;100.00;95704.59;5077817;28;20235;-70
2021/05/12 01:46:49;;;;;;;7.53;4.30;;;;;;;10.83;100.00;95704.97;5078873;28;20200;-70
2021/05/12 01:49:15;;;;;;;5.63;4.00;;;;;;;10.81;100.00;95702.53;5078967;28;20203;-69
2021/05/12 01:51:41;;;;;;;3.93;3.40;;;;;;;10.76;100.00;95710.19;5079445;28;20206;-70
2021/05/12 01:54:10;;;;;;;4.57;3.20;;;;;;;10.82;100.00;95703.34;5078113;28;20226;-70
2021/05/12 01:56:37;;;;;;;3.90;3.50;;;;;;;10.84;100.00;95703.97;5078625;28;20200;-69
2021/05/12 01:59:04;;;;;;;4.97;3.63;;;;;;;10.76;100.00;95704.13;5078130;28;20211;-70
2021/05/12 02:01:31;;;;;;;4.10;3.43;;;;;;;10.72;100.00;95708.94;5079351;28;20253;-70
2021/05/12 02:04:01;;;;;;;5.37;3.80;;;;;;;10.74;100.00;95700.84;5078439;28;20211;-70
2021/05/12 02:06:27;;;;;;;4.50;3.67;;;;;;;10.77;100.00;95708.38;5078170;28;20208;-70
2021/05/12 02:08:53;;;;;;;3.80;3.10;;;;;;;10.72;100.00;95708.94;5078151;28;20283;-70
2021/05/12 02:11:19;;;;;;;6.63;4.00;;;;;;;10.75;100.00;95699.84;5078591;28;20231;-70
2021/05/12 02:13:46;;;;;;;4.97;3.53;;;;;;;10.75;100.00;95699.84;5077840;28;20206;-70
2021/05/12 02:16:12;;;;;;;4.23;3.33;;;;;;;10.69;100.00;95700.59;5078193;28;20246;-70
2021/05/12 02:18:38;;;;;;;6.00;4.00;;;;;;;10.71;100.00;95703.88;5078205;28;21102;-70
2021/05/12 02:21:06;;;;;;;5.37;3.80;;;;;;;10.76;100.00;95694.38;5078259;28;20321;-71
2021/05/12 02:23:32;;;;;;;4.70;3.43;;;;;;;10.71;100.00;95686.22;5078275;28;20207;-70
2021/05/12 02:25:59;;;;;;;5.03;3.87;;;;;;;10.65;100.00;95689.63;5077655;28;20202;-70
2021/05/12 02:28:25;;;;;;;5.60;3.97;;;;;;;10.75;100.00;95690.13;5078464;28;20580;-70
2021/05/12 02:30:52;;;;;;;5.07;3.80;;;;;;;10.75;100.00;95687.47;5074710;28;20223;-70
2021/05/12 02:33:18;;;;;;;5.47;3.60;;;;;;;10.76;100.00;95694.38;5077990;28;20574;-69
2021/05/12 02:35:45;;;;;;;6.10;4.20;;;;;;;10.72;100.00;95687.88;5077279;28;20372;-69
2021/05/12 02:38:11;;;;;;;5.57;3.97;;;;;;;10.77;100.00;95689.91;5078036;28;20219;-70
2021/05/12 02:40:37;;;;;;;5.40;3.93;;;;;;;10.72;100.00;95685.25;5077651;28;20220;-70
2021/05/12 02:43:04;;;;;;;6.77;4.20;;;;;;;10.73;100.00;95699.22;5078160;28;20693;-70
2021/05/12 02:45:32;;;;;;;6.73;4.67;;;;;;;10.71;100.00;95690.69;5077017;28;20203;-70
2021/05/12 02:48:00;;;;;;;7.30;4.80;;;;;;;10.66;100.00;95687.81;5077859;28;20203;-69
2021/05/12 02:50:28;;;;;;;7.70;5.03;;;;;;;10.61;100.00;95684.94;5077932;28;20220;-70
2021/05/12 02:52:55;;;;;;;8.13;5.70;;;;;;;10.62;100.00;95691.84;5078067;28;20208;-70
2021/05/12 02:55:21;;;;;;;8.67;6.17;;;;;;;10.63;100.00;95688.22;5076112;28;20258;-70
2021/05/12 02:57:47;;;;;;;7.80;5.77;;;;;;;10.65;100.00;95688.81;5077901;28;20203;-70
2021/05/12 03:00:16;;;;;;;9.07;6.20;;;;;;;10.69;100.00;95687.44;5077994;28;20220;-70
2021/05/12 03:02:42;;;;;;;10.30;6.10;;;;;;;10.71;100.00;95688.88;5076994;28;20195;-69
2021/05/12 03:05:11;;;;;;;8.53;5.90;;;;;;;10.72;100.00;95682.59;5076648;28;20211;-70
2021/05/12 03:07:37;;;;;;;9.27;6.67;;;;;;;10.70;100.00;95683.78;5078131;28;20200;-69
2021/05/12 03:10:06;;;;;;;8.63;6.20;;;;;;;10.65;100.00;95686.19;5077493;28;20595;-70
2021/05/12 03:12:32;;;;;;;9.93;6.50;;;;;;;10.72;100.00;95692.34;5076984;28;20211;-71
2021/05/12 03:14:58;;;;;;;8.37;5.77;;;;;;;10.70;100.00;95694.34;5077677;28;20943;-70
2021/05/12 03:17:24;;;;;;;10.27;5.93;;;;;;;10.73;100.00;95692.16;5076627;28;20685;-71
2021/05/12 03:19:50;;;;;;;8.70;5.97;;;;;;;10.71;100.00;95695.97;5077193;28;20626;-70
2021/05/12 03:22:16;;;;;;;9.10;6.03;;;;;;;10.70;100.00;95691.69;5077571;28;20566;-69
2021/05/12 03:24:43;;;;;;;8.60;5.70;;;;;;;10.69;100.00;95693.53;5077396;28;20200;-70
2021/05/12 03:27:09;;;;;;;7.87;5.27;;;;;;;10.70;100.00;95692.50;5075845;28;20204;-70
2021/05/12 03:29:35;;;;;;;8.40;5.37;;;;;;;10.73;100.00;95686.88;5077734;28;20580;-70
2021/05/12 03:32:01;;;;;;;7.90;5.47;;;;;;;10.76;100.00;95693.59;5076788;28;21198;-70
2021/05/12 03:34:27;;;;;;;5.57;4.33;;;;;;;10.74;100.00;95695.56;5077066;28;20227;-69
2021/05/12 03:36:53;;;;;;;5.00;3.67;;;;;;;10.72;100.00;95698.41;5076140;28;20195;-70
2021/05/12 03:39:20;;;;;;;6.17;4.07;;;;;;;10.72;100.00;95698.41;5077466;28;20657;-70
2021/05/12 03:41:46;;;;;;;6.90;4.23;;;;;;;10.69;100.00;95697.97;5076434;28;21151;-70
2021/05/12 03:44:12;;;;;;;4.87;3.70;;;;;;;10.70;100.00;95699.59;5077085;28;20199;-70
2021/05/12 03:46:38;;;;;;;5.83;3.23;;;;;;;10.68;100.00;95698.97;5075909;28;20204;-70
2021/05/12 03:49:04;;;;;;;4.10;2.67;;;;;;;10.74;100.00;95706.13;5076871;28;20208;-69
2021/05/12 03:51:30;;;;;;;7.10;3.50;;;;;;;10.75;100.00;95710.41;5077310;28;20831;-69
2021/05/12 03:53:56;;;;;;;6.03;3.80;;;;;;;10.77;100.00;95708.38;5076494;28;20203;-70
2021/05/12 03:56:23;;;;;;;8.27;3.43;;;;;;;10.82;100.00;95709.44;5076618;28;20211;-70
2021/05/12 03:58:49;;;;;;;6.37;3.70;;;;;;;10.81;100.00;95704.38;5076628;28;20203;-70
2021/05/12 04:01:15;;;;;;;6.60;3.37;;;;;;;10.76;100.00;95709.41;5076527;28;20258;-70
2021/05/12 04:03:41;;;;;;;5.80;2.77;;;;;;;10.76;100.00;95706.75;5077381;28;20200;-70
2021/05/12 04:06:07;;;;;;;4.43;2.67;;;;;;;10.74;100.00;95714.03;5076231;28;20249;-70
2021/05/12 04:08:33;;;;;;;4.57;2.07;;;;;;;10.75;100.00;95715.66;5080393;28;20203;-69
2021/05/12 04:10:59;;;;;;;3.57;2.13;;;;;;;10.75;100.00;95713.03;5081338;28;20314;-70
2021/05/12 04:13:26;;;;;;;5.23;2.50;;;;;;;10.76;100.00;95714.66;5080404;28;20587;-70
2021/05/12 04:15:52;;;;;;;2.67;1.60;;;;;;;10.78;100.00;95717.91;5079752;28;20314;-70
2021/05/12 04:18:18;;;;;;;3.73;1.40;;;;;;;10.72;100.00;95719.50;5080484;28;20208;-70
2021/05/12 04:20:44;;;;;;;2.40;1.07;;;;;;;10.71;100.00;95724.97;5080653;28;21339;-69
2021/05/12 04:23:10;;;;;;;1.90;1.37;;;;;;;10.70;100.00;95718.06;5080212;28;20204;-70
2021/05/12 04:25:36;;;;;;;3.00;1.50;;;;;;;10.70;100.00;95723.31;5079443;28;20210;-69
2021/05/12 04:28:03;;;;;;;2.87;1.20;;;;;;;10.67;100.00;95723.72;5080932;28;20200;-70
2021/05/12 04:30:31;;;;;;;3.80;1.17;;;;;;;10.56;100.00;95730.28;5080407;28;20596;-70
2021/05/12 04:32:59;;;;;;;1.97;1.00;;;;;;;10.54;100.00;95736.78;5080544;28;20305;-69
2021/05/12 04:35:26;;;;;;;3.57;1.10;;;;;;;10.55;100.00;95738.38;5079534;28;20764;-72
2021/05/12 04:37:52;;;;;;;1.77;1.20;;;;;;;10.52;100.00;95734.28;5080411;28;20203;-69
2021/05/12 04:40:20;;;;;;;2.17;1.10;;;;;;;10.50;100.00;95733.69;5079361;28;20242;-69
2021/05/12 04:42:47;;;;;;;1.40;1.30;;;;;;;10.49;100.00;95739.16;5080162;28;20692;-70
2021/05/12 04:45:15;;;;;;;2.20;1.30;;;;;;;10.52;100.00;95744.84;5079471;28;21103;-70
2021/05/12 04:47:42;;;;;;;2.73;1.10;;;;;;;10.49;100.00;95750.50;5080031;28;20272;-70
2021/05/12 04:50:11;;;;;;;5.50;1.27;;;;;;;10.47;100.00;95755.13;5079760;28;20224;-70
2021/05/12 04:52:37;;;;;;;2.67;1.17;;;;;;;10.39;100.00;95762.34;5080665;28;20204;-70
2021/05/12 04:55:04;;;;;;;1.57;1.20;;;;;;;10.45;100.00;95757.13;5078985;28;20774;-70
2021/05/12 04:57:30;;;;;;;1.60;1.13;;;;;;;10.47;100.00;95757.75;5079887;28;20227;-69
2021/05/12 04:59:56;;;;;;;2.03;1.37;;;;;;;10.52;100.00;95760.63;5080023;28;21284;-69
2021/05/12 05:02:22;;;;;;;4.30;1.47;;;;;;;10.52;100.00;95765.09;5080010;28;20287;-69
2021/05/12 05:04:48;;;;;;;2.17;1.60;;;;;;;10.50;100.00;95761.84;5079481;28;20252;-69
2021/05/12 05:07:14;;;;;;;2.97;1.20;;;;;;;10.48;100.00;95759.38;5079658;28;20206;-69
2021/05/12 05:09:40;;;;;;;2.30;1.43;;;;;;;10.52;100.00;95765.91;5079462;28;20700;-69
2021/05/12 05:12:06;;;;;;;15.63;9.63;;;;;;;10.49;100.00;95770.75;5079537;28;20215;-69
2021/05/12 05:14:32;;;;;;;13.50;12.30;;;;;;;10.55;100.00;95768.19;5079680;28;20219;-69
2021/05/12 05:17:00;;;;;;;3.97;1.87;;;;;;;10.50;100.00;95767.09;5079119;28;20323;-69
2021/05/12 05:19:26;;;;;;;2.77;1.67;;;;;;;10.59;100.00;95771.25;5079725;28;20669;-69
2021/05/12 05:21:53;;;;;;;4.70;1.70;;;;;;;10.57;100.00;95760.09;5079118;28;20218;-69
2021/05/12 05:24:19;;;;;;;3.17;1.60;;;;;;;10.55;100.00;95762.09;5079375;28;20196;-69
2021/05/12 05:26:45;;;;;;;3.17;1.70;;;;;;;10.55;100.00;95764.72;5078993;28;20215;-69
2021/05/12 05:29:11;;;;;;;4.97;1.80;;;;;;;10.55;100.00;95776.09;5079222;28;20226;-69
2021/05/12 05:31:37;;;;;;;4.70;2.37;;;;;;;10.55;100.00;95770.00;5079317;28;20223;-69
2021/05/12 05:34:04;;;;;;;3.23;2.37;;;;;;;10.62;100.00;95766.41;5079473;28;21285;-69
2021/05/12 05:36:30;;;;;;;4.17;2.30;;;;;;;10.52;100.00;95763.28;5078459;28;20211;-69
2021/05/12 05:38:56;;;;;;;5.53;2.30;;;;;;;10.50;100.00;95761.84;5078978;28;20242;-69
2021/05/12 05:41:22;;;;;;;4.13;2.40;;;;;;;10.53;100.00;95761.47;5079186;28;20228;-69
2021/05/12 05:43:48;;;;;;;4.00;2.50;;;;;;;10.58;100.00;95761.72;5079499;28;20567;-69
2021/05/12 05:46:14;;;;;;;3.47;2.60;;;;;;;10.61;100.00;95759.50;5078007;28;20215;-69
2021/05/12 05:48:40;;;;;;;5.30;2.83;;;;;;;10.65;100.00;95767.88;5079369;28;20208;-69
2021/05/12 05:51:06;;;;;;;6.27;2.83;;;;;;;10.58;100.00;95754.63;5078470;28;20240;-69
2021/05/12 05:53:32;;;;;;;6.57;3.20;;;;;;;10.65;100.00;95766.03;5078649;28;20207;-69
2021/05/12 05:55:59;;;;;;;5.43;2.90;;;;;;;10.59;100.00;95761.53;5078618;28;20590;-69
2021/05/12 05:58:25;;;;;;;5.73;2.90;;;;;;;10.60;100.00;95772.88;5078481;28;20220;-69
2021/05/12 06:00:52;;;;;;;4.97;2.90;;;;;;;10.60;100.00;95770.25;5078156;28;20228;-69
2021/05/12 06:03:18;;;;;;;4.30;2.83;;;;;;;10.68;100.00;95765.69;5079595;28;20203;-69
2021/05/12 06:05:48;;;;;;;3.97;2.70;;;;;;;10.73;100.00;95770.38;5078453;28;20260;-69
2021/05/12 06:08:14;;;;;;;6.53;3.23;;;;;;;10.68;100.00;95772.75;5077988;28;20291;-69
2021/05/12 06:10:40;;;;;;;6.83;3.00;;;;;;;10.69;100.00;95771.75;5078325;28;20922;-69
2021/05/12 06:13:07;;;;;;;4.80;3.23;;;;;;;10.63;100.00;95772.53;5078744;28;20247;-69
2021/05/12 06:15:33;;;;;;;4.63;2.83;;;;;;;10.61;100.00;95771.88;5077844;28;20224;-69
2021/05/12 06:17:59;;;;;;;6.83;3.03;;;;;;;10.67;100.00;95776.41;5078402;28;20264;-71
2021/05/12 06:20:25;;;;;;;5.03;3.30;;;;;;;10.65;100.00;95770.50;5078486;28;20322;-69
2021/05/12 06:22:59;;;;;;;5.57;3.67;;;;;;;10.61;100.00;95780.59;5077508;28;21351;-69
2021/05/12 06:25:25;;;;;;;7.33;3.40;;;;;;;10.63;100.00;95783.06;5077695;28;20211;-69
2021/05/12 06:27:51;;;;;;;6.13;3.50;;;;;;;10.64;100.00;95784.66;5077938;28;20196;-69
2021/05/12 06:30:18;;;;;;;8.47;3.90;;;;;;;10.61;100.00;95790.31;5078305;28;20223;-69
2021/05/12 06:32:46;;;;;;;6.53;3.73;;;;;;;10.66;100.00;95782.69;5077696;28;20211;-69
2021/05/12 06:35:12;;;;;;;6.30;3.50;;;;;;;10.59;100.00;95789.69;5077376;28;20317;-69
2021/05/12 06:37:38;;;;;;;8.57;3.93;;;;;;;10.66;100.00;95782.69;5077730;28;20223;-69
2021/05/12 06:40:05;;;;;;;4.70;2.67;;;;;;;10.60;100.00;95773.72;5078062;28;20322;-69
2021/05/12 06:42:31;;;;;;;6.60;3.77;;;;;;;10.60;100.00;95780.78;5077661;28;20207;-69
2021/05/12 06:44:57;;;;;;;7.70;4.50;;;;;;;10.60;100.00;95786.88;5078067;28;20254;-69
2021/05/12 06:47:24;;;;;;;8.53;4.10;;;;;;;10.65;100.00;95794.22;5076957;28;20222;-69
2021/05/12 06:49:50;;;;;;;6.63;4.43;;;;;;;10.68;100.00;95788.56;5077636;28;20223;-69
2021/05/12 06:52:16;;;;;;;5.17;3.00;;;;;;;10.67;100.00;95794.84;5077518;28;21006;-69
2021/05/12 06:54:42;;;;;;;6.87;4.77;;;;;;;10.72;100.00;95803.00;5078320;28;20255;-69
2021/05/12 06:57:08;;;;;;;5.47;3.13;;;;;;;10.68;100.00;95791.19;5076769;28;20751;-69
2021/05/12 06:59:34;;;;;;;9.60;4.00;;;;;;;10.75;100.00;95795.53;5077601;28;20203;-69
2021/05/12 07:02:00;;;;;;;6.33;3.90;;;;;;;10.81;100.00;95788.72;5077339;28;20200;-69
2021/05/12 07:04:27;;;;;;;6.93;3.80;;;;;;;10.79;100.00;95790.69;5077623;28;20204;-69
2021/05/12 07:06:53;;;;;;;7.70;3.90;;;;;;;10.80;100.00;95781.78;5076670;28;20207;-69
2021/05/12 07:09:19;;;;;;;5.37;3.87;;;;;;;10.77;100.00;95780.34;5077327;28;20200;-69
2021/05/12 07:11:45;;;;;;;7.77;3.80;;;;;;;10.81;100.00;95786.06;5077596;28;20216;-69
2021/05/12 07:14:11;;;;;;;6.23;3.70;;;;;;;10.84;100.00;95788.31;5077024;28;20200;-69
2021/05/12 07:16:37;;;;;;;5.90;3.27;;;;;;;10.81;100.00;95797.41;5076376;28;20293;-69
2021/05/12 07:19:03;;;;;;;5.13;3.60;;;;;;;10.78;100.00;95802.25;5077733;28;20196;-69
2021/05/12 07:21:30;;;;;;;6.97;4.03;;;;;;;10.83;100.00;95797.22;5078012;28;20231;-68
2021/05/12 07:23:57;;;;;;;6.10;3.77;;;;;;;10.80;100.00;95787.06;5076943;28;20607;-69
2021/05/12 07:26:25;;;;;;;6.13;3.73;;;;;;;10.83;100.00;95778.78;5077073;28;20303;-69
2021/05/12 07:28:51;;;;;;;7.40;4.20;;;;;;;10.82;100.00;95783.25;5077376;28;20203;-69
2021/05/12 07:31:19;;;;;;;8.73;4.40;;;;;;;10.89;100.00;95780.66;5074437;28;20226;-68
2021/05/12 07:33:45;;;;;;;8.00;4.20;;;;;;;10.90;100.00;95787.56;5077162;28;20343;-68
2021/05/12 07:36:11;;;;;;;6.03;3.80;;;;;;;10.93;100.00;95785.34;5076372;28;20224;-69
2021/05/12 07:38:38;;;;;;;7.83;4.37;;;;;;;10.95;100.00;95780.72;5076548;28;20200;-69
2021/05/12 07:41:05;;;;;;;10.50;5.33;;;;;;;11.00;100.00;95792.31;5076207;28;20228;-69
2021/05/12 07:43:31;;;;;;;8.07;5.10;;;;;;;10.97;100.00;95789.22;5077059;28;20247;-69
2021/05/12 07:45:59;;;;;;;8.33;4.70;;;;;;;10.93;100.00;95788.81;5076137;28;20196;-69
2021/05/12 07:48:26;;;;;;;9.83;4.97;;;;;;;10.97;100.00;95797.13;5076892;28;20199;-69
2021/05/12 07:50:52;;;;;;;8.93;4.40;;;;;;;10.93;100.00;95796.72;5077018;28;20261;-69
2021/05/12 07:53:18;;;;;;;10.13;4.73;;;;;;;10.93;100.00;95787.19;5076099;28;20204;-69
2021/05/12 07:55:44;;;;;;;8.80;4.43;;;;;;;10.95;100.00;95784.16;5075596;28;20265;-69
2021/05/12 07:58:10;;;;;;;7.37;4.13;;;;;;;11.03;100.00;95781.38;5076572;28;20196;-68
2021/05/12 08:00:36;;;;;;;8.37;4.30;;;;;;;11.02;100.00;95779.75;5076948;28;20226;-69
2021/05/12 08:03:03;;;;;;;9.60;5.60;;;;;;;11.17;100.00;95780.47;5076827;28;20196;-68
2021/05/12 08:05:29;;;;;;;6.80;4.90;;;;;;;11.17;100.00;95780.47;5076419;28;20237;-69
2021/05/12 08:07:55;;;;;;;8.87;4.80;;;;;;;11.18;100.00;95782.09;5076347;28;20199;-69
2021/05/12 08:10:21;;;;;;;10.63;4.93;;;;;;;11.35;100.00;95780.81;5077625;28;20231;-69
2021/05/12 08:12:48;;;;;;;8.37;4.90;;;;;;;11.46;100.00;95775.00;5076369;28;20257;-69
2021/05/12 08:15:14;;;;;;;6.87;4.13;;;;;;;11.39;100.00;95782.09;5076154;28;20227;-69
2021/05/12 08:17:40;;;;;;;8.43;4.57;;;;;;;11.52;100.00;95781.34;5077028;28;20196;-69
2021/05/12 08:20:07;;;;;;;5.93;4.40;;;;;;;11.47;100.00;95784.56;5076545;28;20235;-69
2021/05/12 08:22:33;;;;;;;8.97;4.53;;;;;;;11.39;100.00;95771.53;5076643;28;20215;-69
2021/05/12 08:24:59;;;;;;;7.47;4.30;;;;;;;11.17;100.00;95783.09;5076938;28;20298;-68
2021/05/12 08:27:25;;;;;;;11.07;4.70;;;;;;;11.27;100.00;95783.59;5074806;28;20294;-68
2021/05/12 08:29:54;;;;;;;8.07;4.73;;;;;;;11.31;100.00;95782.19;5076600;28;20307;-69
2021/05/12 08:32:20;;;;;;;8.37;5.50;;;;;;;11.18;100.00;95779.47;5071986;28;20200;-69
2021/05/12 08:34:46;;;;;;;9.77;5.50;;;;;;;11.22;100.00;95772.81;5075602;28;20227;-69
2021/05/12 08:37:12;;;;;;;10.10;4.80;;;;;;;11.20;100.00;95777.47;5075804;28;20195;-69
2021/05/12 08:39:38;;;;;;;7.80;5.80;;;;;;;11.33;100.00;95779.38;5076186;28;20318;-69
2021/05/12 08:42:07;;;;;;;5.60;4.00;;;;;;;11.27;100.00;95773.03;5076348;28;20582;-69
2021/05/12 08:44:33;;;;;;;8.00;3.70;;;;;;;11.26;100.00;95781.97;5075963;28;21126;-69
2021/05/12 08:47:01;;;;;;;10.17;6.07;;;;;;;11.29;100.00;95780.75;5075609;28;20580;-69
2021/05/12 08:49:28;;;;;;;8.43;5.60;;;;;;;11.33;100.00;95787.28;5076052;28;20208;-69
2021/05/12 08:51:55;;;;;;;8.60;6.33;;;;;;;11.35;100.00;95786.09;5076257;28;20200;-69
2021/05/12 08:54:22;;;;;;;12.07;6.70;;;;;;;11.40;100.00;95783.69;5079826;28;20210;-69
2021/05/12 08:56:48;;;;;;;11.53;6.17;;;;;;;11.21;100.00;95792.25;5079171;28;20203;-69
2021/05/12 08:59:15;;;;;;;10.97;6.43;;;;;;;11.26;100.00;95789.88;5080495;28;20689;-69
2021/05/12 09:01:42;;;;;;;9.53;6.27;;;;;;;11.33;100.00;95782.00;5079412;28;20761;-69
2021/05/12 09:04:09;;;;;;;11.73;6.50;;;;;;;11.35;100.00;95791.34;5079592;28;20199;-69
2021/05/12 09:06:37;;;;;;;13.53;7.00;;;;;;;11.47;100.00;95786.38;5079163;28;20195;-69
2021/05/12 09:09:06;;;;;;;12.43;6.27;;;;;;;11.54;100.00;95785.44;5079826;28;20306;-69
2021/05/12 09:11:32;;;;;;;11.10;6.23;;;;;;;11.51;100.00;95785.84;5079253;28;20823;-69
2021/05/12 09:13:59;;;;;;;9.57;5.77;;;;;;;11.58;100.00;95776.97;5079389;28;20250;-69
2021/05/12 09:16:27;;;;;;;8.93;4.20;;;;;;;11.46;100.00;95785.56;5079039;28;20285;-69
2021/05/12 09:19:02;;;;;;;9.20;5.13;;;;;;;11.50;100.00;95781.56;5079849;28;20568;-69
2021/05/12 09:21:46;;;;;;;9.63;5.93;;;;;;;11.46;100.00;95777.66;5079322;28;20911;-69
2021/05/12 09:24:24;;;;;;;6.90;4.53;;;;;;;11.50;100.00;95784.19;5079239;28;20211;-69
2021/05/12 09:26:52;;;;;;;7.17;4.63;;;;;;;11.19;100.00;95786.38;5078056;28;20203;-69
2021/05/12 09:29:38;;;;;;;10.43;5.93;;;;;;;11.34;100.00;95786.28;5078743;28;21146;-69
2021/05/12 09:32:07;;;;;;;10.57;5.77;;;;;;;11.34;100.00;95784.47;5071547;28;20384;-69
2021/05/12 09:34:56;;;;;;;9.57;5.83;;;;;;;11.48;100.00;95788.00;5078705;28;20265;-69
2021/05/12 09:37:27;;;;;;;8.43;5.87;;;;;;;11.47;100.00;95786.38;5078608;28;20214;-69
2021/05/12 09:39:54;;;;;;;11.47;4.47;;;;;;;11.24;100.00;95791.06;5079067;28;20220;-69
2021/05/12 09:42:21;;;;;;;9.90;4.20;;;;;;;10.99;100.00;95790.66;5079087;28;20200;-69
2021/05/12 09:44:48;;;;;;;9.30;5.03;;;;;;;10.92;100.00;95786.38;5079270;28;20200;-69
2021/05/12 09:47:29;;;;;;;7.83;5.40;;;;;;;10.86;100.00;95799.47;5078312;28;20231;-69
2021/05/12 09:49:55;;;;;;;8.43;4.00;;;;;;;10.80;100.00;95794.97;5078905;28;20223;-71
2021/05/12 09:52:28;;;;;;;11.07;5.90;;;;;;;10.88;100.00;95787.72;5079110;28;20219;-71
2021/05/12 09:55:00;;;;;;;12.20;5.90;;;;;;;10.93;100.00;95789.81;5079638;28;20228;-71
2021/05/12 09:57:26;;;;;;;10.27;6.60;;;;;;;10.95;100.00;95793.91;5078315;28;20695;-71
2021/05/12 09:59:52;;;;;;;11.50;6.27;;;;;;;11.13;100.00;95788.97;5077995;28;20701;-71
2021/05/12 10:02:18;;;;;;;9.67;4.90;;;;;;;10.94;100.00;95779.88;5080056;28;20210;-69
2021/05/12 10:04:44;;;;;;;7.33;4.80;;;;;;;10.95;100.00;95794.69;5077526;28;20310;-70
2021/05/12 10:07:16;;;;;;;10.23;5.63;;;;;;;10.98;100.00;95788.22;5077914;28;20208;-70
2021/05/12 10:09:44;;;;;;;7.80;4.17;;;;;;;11.15;100.00;95786.94;5078400;28;20223;-70
2021/05/12 10:12:13;;;;;;;10.33;5.73;;;;;;;11.15;100.00;95784.31;5078489;28;20207;-69
2021/05/12 10:14:41;;;;;;;8.40;5.90;;;;;;;11.17;100.00;95790.22;5077888;28;20200;-70
2021/05/12 10:17:10;;;;;;;10.90;4.60;;;;;;;11.11;100.00;95788.34;5078127;28;20204;-69
2021/05/12 10:19:37;;;;;;;12.63;6.17;;;;;;;11.11;100.00;95783.91;5078434;28;20203;-69
2021/05/12 10:22:04;;;;;;;9.50;6.10;;;;;;;11.08;100.00;95786.91;5078375;28;20226;-70
2021/05/12 10:24:33;;;;;;;11.53;7.20;;;;;;;11.07;100.00;95785.28;5078437;28;20265;-69
2021/05/12 10:27:06;;;;;;;11.13;6.07;;;;;;;10.98;100.00;95789.06;5077307;28;20249;-69
2021/05/12 10:29:32;;;;;;;18.13;7.87;;;;;;;10.93;100.00;95782.72;5077885;28;20199;-69
2021/05/12 10:31:59;;;;;;;16.93;8.03;;;;;;;10.92;100.00;95785.53;5076002;28;20200;-69
2021/05/12 10:34:39;;;;;;;13.83;7.77;;;;;;;11.09;100.00;95775.34;5078298;28;20264;-69
2021/05/12 10:37:24;;;;;;;14.47;7.77;;;;;;;11.15;100.00;95777.22;5074364;28;20203;-70
2021/05/12 10:39:53;;;;;;;15.93;8.60;;;;;;;11.14;100.00;95777.44;5077810;28;20215;-70
2021/05/12 10:42:55;;;;;;;18.33;8.53;;;;;;;11.14;100.00;95777.44;5078241;28;20204;-69
2021/05/12 10:45:34;;;;;;;21.70;9.20;;;;;;;11.24;100.00;95786.63;5076756;28;20673;-70
2021/05/12 10:48:01;;;;;;;19.63;9.03;;;;;;;11.21;100.00;95779.06;5078242;28;20199;-70
2021/05/12 10:50:43;;;;;;;13.17;7.13;;;;;;;11.20;100.00;95772.19;5077420;28;20219;-70
2021/05/12 10:53:20;;;;;;;15.73;8.37;;;;;;;11.15;100.00;95787.78;5078103;28;20204;-70
2021/05/12 10:56:14;;;;;;;17.53;8.27;;;;;;;11.12;100.00;95785.50;5076555;28;20220;-70
2021/05/12 10:58:55;;;;;;;18.93;9.83;;;;;;;11.13;100.00;95781.88;5041745;28;20196;-69
2021/05/12 11:01:21;;;;;;;15.90;8.00;;;;;;;11.08;100.00;95775.53;5077965;28;20273;-69
2021/05/12 11:04:06;;;;;;;17.00;10.00;;;;;;;11.16;100.00;95781.50;5078137;28;20204;-70
2021/05/12 11:07:07;;;;;;;17.90;9.23;;;;;;;11.15;100.00;95779.88;5076470;28;20230;-70
2021/05/12 11:09:51;;;;;;;18.70;9.33;;;;;;;11.15;100.00;95777.22;5078339;28;20208;-70
2021/05/12 11:12:22;;;;;;;20.43;9.30;;;;;;;11.00;100.00;95771.22;5077114;28;20208;-69
2021/05/12 11:14:57;;;;;;;20.43;10.37;;;;;;;11.12;100.00;95774.94;5077202;28;20204;-69
2021/05/12 11:17:41;;;;;;;19.60;9.83;;;;;;;11.12;100.00;95782.88;5077239;28;20261;-70
2021/05/12 11:20:24;;;;;;;12.13;6.53;;;;;;;10.95;100.00;95773.59;5077656;28;20216;-70
2021/05/12 11:22:52;;;;;;;18.13;9.90;;;;;;;11.07;100.00;95777.38;5076974;28;20237;-70
2021/05/12 11:25:27;;;;;;;19.47;9.37;;;;;;;11.22;100.00;95774.63;5077232;28;20229;-70
2021/05/12 11:28:44;;;;;;;14.80;8.63;;;;;;;11.06;100.00;95764.34;5076515;28;20210;-70